createdAt,value
2019-02-21T00:00:06.050Z,36.80
2019-02-21T00:02:34.587Z,36.80
2019-02-21T00:05:03.521Z,36.90
2019-02-21T00:07:32.543Z,36.90
2019-02-21T00:10:00.999Z,36.90
2019-02-21T00:12:29.493Z,37.00
2019-02-21T00:14:57.951Z,37.00
2019-02-21T00:17:26.438Z,36.90
2019-02-21T00:19:55.145Z,36.90
2019-02-21T00:22:23.640Z,36.90
2019-02-21T00:24:52.109Z,36.90
2019-02-21T00:27:20.587Z,36.90
2019-02-21T00:29:49.059Z,36.90
2019-02-21T00:32:17.593Z,36.90
2019-02-21T00:34:46.127Z,36.80
2019-02-21T00:37:14.612Z,36.80
2019-02-21T00:39:43.087Z,36.80
2019-02-21T00:42:11.664Z,36.80
2019-02-21T00:44:40.136Z,36.90
2019-02-21T00:47:08.596Z,36.80
2019-02-21T00:49:37.077Z,36.80
2019-02-21T00:52:05.534Z,36.90
2019-02-21T00:54:34.020Z,36.90
2019-02-21T00:57:02.555Z,36.90
2019-02-21T00:59:31.040Z,36.90
2019-02-21T01:01:59.568Z,36.90
2019-02-21T01:04:28.118Z,36.80
2019-02-21T01:06:56.649Z,36.80
2019-02-21T01:09:25.374Z,36.80
2019-02-21T01:11:53.844Z,36.90
2019-02-21T01:14:22.387Z,36.90
2019-02-21T01:16:50.846Z,36.90
2019-02-21T01:19:19.332Z,36.90
2019-02-21T01:21:47.820Z,36.90
2019-02-21T01:24:16.274Z,36.90
2019-02-21T01:26:44.770Z,36.90
2019-02-21T01:29:13.282Z,37.00
2019-02-21T01:31:41.763Z,36.90
2019-02-21T01:34:10.435Z,36.90
2019-02-21T01:36:38.940Z,36.90
2019-02-21T01:39:07.566Z,36.90
2019-02-21T01:41:36.052Z,36.90
2019-02-21T01:44:04.760Z,36.80
2019-02-21T01:46:33.355Z,36.90
2019-02-21T01:49:01.819Z,36.90
2019-02-21T01:51:30.305Z,36.90
2019-02-21T01:53:58.849Z,36.90
2019-02-21T01:56:27.354Z,36.80
2019-02-21T01:58:55.813Z,36.80
2019-02-21T02:01:24.278Z,36.80
2019-02-21T02:03:52.832Z,36.80
2019-02-21T02:06:21.292Z,36.80
2019-02-21T02:08:49.783Z,36.80
2019-02-21T02:11:18.241Z,36.90
2019-02-21T02:13:46.778Z,37.60
2019-02-21T02:16:15.250Z,37.60
2019-02-21T02:18:43.717Z,37.60
2019-02-21T02:21:12.912Z,37.60
2019-02-21T02:23:41.384Z,37.60
2019-02-21T02:26:09.842Z,37.60
2019-02-21T02:28:38.320Z,37.60
2019-02-21T02:31:07.031Z,37.60
2019-02-21T02:33:35.583Z,37.60
2019-02-21T02:36:04.102Z,37.60
2019-02-21T02:38:32.552Z,37.70
2019-02-21T02:41:01.035Z,37.70
2019-02-21T02:43:29.499Z,37.60
2019-02-21T02:45:57.980Z,37.70
2019-02-21T02:48:26.501Z,37.60
2019-02-21T02:50:54.964Z,37.70
2019-02-21T02:56:51.458Z,37.60
2019-02-21T03:02:54.558Z,37.60
2019-02-21T03:05:23.106Z,37.50
2019-02-21T03:07:51.568Z,37.50
2019-02-21T03:10:20.047Z,37.40
2019-02-21T03:12:48.505Z,37.40
2019-02-21T03:15:17.075Z,37.30
2019-02-21T03:17:45.572Z,37.50
2019-02-21T03:20:14.045Z,37.40
2019-02-21T03:22:42.529Z,37.50
2019-02-21T03:25:11.152Z,37.50
2019-02-21T03:27:39.728Z,37.50
2019-02-21T03:30:12.268Z,37.60
2019-02-21T03:32:40.426Z,37.60
2019-02-21T03:35:09.162Z,37.60
2019-02-21T03:37:37.749Z,37.60
2019-02-21T03:40:08.634Z,37.60
2019-02-21T03:42:37.277Z,37.70
2019-02-21T03:45:09.134Z,37.80
2019-02-21T03:47:37.682Z,37.80
2019-02-21T03:50:08.777Z,37.80
2019-02-21T03:52:37.329Z,37.90
2019-02-21T03:55:07.036Z,37.80
2019-02-21T03:57:35.581Z,37.90
2019-02-21T04:00:06.266Z,37.90
2019-02-21T04:02:34.813Z,37.80
2019-02-21T04:05:03.482Z,38.00
2019-02-21T04:07:32.007Z,38.00
2019-02-21T04:10:00.519Z,38.00
2019-02-21T04:12:29.033Z,38.00
2019-02-21T04:14:57.517Z,38.10
2019-02-21T04:17:25.986Z,38.10
2019-02-21T04:19:54.570Z,38.10
2019-02-21T04:22:23.132Z,38.10
2019-02-21T04:24:51.706Z,38.10
2019-02-21T04:27:20.183Z,38.20
2019-02-21T04:29:48.919Z,38.20
2019-02-21T04:32:17.466Z,38.30
2019-02-21T04:34:46.001Z,38.30
2019-02-21T04:37:14.565Z,38.30
2019-02-21T04:39:43.105Z,38.30
2019-02-21T04:42:11.607Z,38.40
2019-02-21T04:44:40.127Z,38.40
2019-02-21T04:47:10.265Z,38.50
2019-02-21T04:49:38.794Z,38.50
2019-02-21T04:52:07.300Z,38.40
2019-02-21T04:54:35.830Z,38.40
2019-02-21T04:57:04.336Z,38.40
2019-02-21T04:59:32.894Z,38.50
2019-02-21T05:02:01.464Z,38.40
2019-02-21T05:04:30.086Z,38.40
2019-02-21T05:06:58.663Z,38.40
2019-02-21T05:09:27.476Z,38.40
2019-02-21T05:11:56.092Z,38.40
2019-02-21T05:14:24.655Z,38.40
2019-02-21T05:16:53.212Z,38.30
2019-02-21T05:19:21.705Z,38.20
2019-02-21T05:21:50.165Z,38.20
2019-02-21T05:24:18.670Z,38.20
2019-02-21T05:26:48.845Z,38.20
2019-02-21T05:29:17.353Z,38.20
2019-02-21T05:31:53.361Z,38.20
2019-02-21T05:34:29.346Z,38.30
2019-02-21T05:37:02.215Z,38.30
2019-02-21T05:39:38.106Z,38.40
2019-02-21T05:42:11.258Z,38.40
2019-02-21T05:44:59.503Z,38.40
2019-02-21T05:47:37.808Z,38.40
2019-02-21T05:50:11.674Z,38.40
2019-02-21T05:52:50.808Z,38.50
2019-02-21T05:55:26.437Z,38.50
2019-02-21T05:58:08.279Z,38.50
2019-02-21T06:00:38.404Z,38.60
2019-02-21T06:03:08.602Z,38.50
2019-02-21T06:05:38.890Z,38.60
2019-02-21T06:08:23.927Z,38.60
2019-02-21T06:11:00.006Z,38.60
2019-02-21T06:13:30.179Z,38.60
2019-02-21T06:16:03.038Z,38.60
2019-02-21T06:18:36.154Z,38.50
2019-02-21T06:21:06.294Z,38.50
2019-02-21T06:23:39.480Z,38.50
2019-02-21T06:26:15.400Z,38.60
2019-02-21T06:28:48.238Z,38.70
2019-02-21T06:31:16.874Z,38.70
2019-02-21T06:33:45.358Z,38.70
2019-02-21T06:36:13.855Z,38.70
2019-02-21T06:38:42.334Z,38.60
2019-02-21T06:41:10.917Z,38.60
2019-02-21T06:43:39.465Z,38.70
2019-02-21T06:46:08.024Z,38.70
2019-02-21T06:48:36.596Z,38.70
2019-02-21T06:51:05.152Z,38.80
2019-02-21T06:53:33.716Z,38.90
2019-02-21T06:56:02.200Z,39.00
2019-02-21T06:58:30.782Z,39.00
2019-02-21T07:00:59.312Z,39.10
2019-02-21T07:03:29.046Z,39.20
2019-02-21T07:05:57.643Z,39.20
2019-02-21T07:08:47.258Z,39.10
2019-02-21T07:11:15.716Z,39.10
2019-02-21T07:13:44.233Z,39.10
2019-02-21T07:16:13.271Z,39.10
2019-02-21T07:18:41.850Z,39.00
2019-02-21T07:21:10.438Z,39.00
2019-02-21T07:23:43.417Z,39.00
2019-02-21T07:26:09.220Z,39.00
2019-02-21T07:28:37.737Z,38.90
2019-02-21T07:31:06.211Z,38.90
2019-02-21T07:33:34.707Z,39.00
2019-02-21T07:36:03.281Z,39.00
2019-02-21T07:38:31.810Z,39.10
2019-02-21T07:41:00.458Z,39.10
2019-02-21T07:43:29.074Z,39.10
2019-02-21T07:45:57.589Z,39.00
2019-02-21T07:48:26.134Z,39.00
2019-02-21T07:50:54.753Z,38.90
2019-02-21T07:53:23.216Z,39.00
2019-02-21T07:55:51.793Z,39.00
2019-02-21T07:58:20.269Z,39.10
2019-02-21T08:00:48.750Z,39.20
2019-02-21T08:03:29.558Z,39.30
2019-02-21T08:05:47.445Z,39.20
2019-02-21T08:08:15.988Z,39.20
2019-02-21T08:10:44.541Z,39.20
2019-02-21T08:13:13.133Z,38.40
2019-02-21T08:15:41.671Z,38.40
2019-02-21T08:18:10.179Z,38.50
2019-02-21T08:20:41.076Z,38.50
2019-02-21T08:23:10.928Z,38.60
2019-02-21T08:25:39.207Z,38.70
2019-02-21T08:28:07.790Z,38.70
2019-02-21T08:30:36.351Z,38.60
2019-02-21T08:33:12.524Z,38.60
2019-02-21T08:35:41.050Z,38.60
2019-02-21T08:38:12.035Z,38.50
2019-02-21T08:40:39.785Z,38.40
2019-02-21T08:43:08.270Z,38.20
2019-02-21T08:45:36.753Z,38.00
2019-02-21T08:48:05.254Z,37.90
2019-02-21T08:50:33.741Z,37.90
2019-02-21T08:53:02.302Z,38.00
2019-02-21T08:55:30.865Z,38.00
2019-02-21T08:57:59.328Z,38.30
2019-02-21T09:00:27.899Z,38.50
2019-02-21T09:02:58.159Z,38.50
2019-02-21T09:05:26.725Z,38.60
2019-02-21T09:07:55.205Z,38.60
2019-02-21T09:10:23.849Z,38.60
2019-02-21T09:12:52.446Z,38.60
2019-02-21T09:15:20.928Z,38.50
2019-02-21T09:17:50.928Z,38.40
2019-02-21T09:20:19.412Z,38.50
2019-02-21T09:22:47.900Z,38.40
2019-02-21T09:25:16.490Z,38.40
2019-02-21T09:27:45.037Z,38.40
2019-02-21T09:30:17.998Z,38.30
2019-02-21T09:32:46.559Z,38.20
2019-02-21T09:35:15.023Z,38.20
2019-02-21T09:37:43.662Z,38.30
2019-02-21T09:40:14.444Z,38.30
2019-02-21T09:42:43.015Z,38.20
2019-02-21T09:45:17.028Z,38.10
2019-02-21T09:47:45.537Z,38.00
2019-02-21T09:50:14.256Z,37.90
2019-02-21T09:52:42.882Z,37.80
2019-02-21T09:55:18.161Z,37.80
2019-02-21T09:57:46.660Z,37.80
2019-02-21T10:00:17.642Z,37.90
2019-02-21T10:02:46.289Z,38.00
2019-02-21T10:05:14.893Z,38.10
2019-02-21T10:07:43.461Z,38.20
2019-02-21T10:10:14.333Z,38.10
2019-02-21T10:12:42.898Z,38.00
2019-02-21T10:15:15.850Z,38.00
2019-02-21T10:17:44.423Z,38.00
2019-02-21T10:20:20.454Z,37.90
2019-02-21T10:22:48.947Z,37.90
2019-02-21T10:25:23.277Z,37.90
2019-02-21T10:27:51.918Z,37.80
2019-02-21T10:30:22.324Z,37.70
2019-02-21T10:32:51.088Z,37.60
2019-02-21T10:35:19.654Z,37.50
2019-02-21T10:37:48.310Z,37.60
2019-02-21T10:40:17.146Z,37.70
2019-02-21T10:42:45.740Z,37.80
2019-02-21T10:45:17.665Z,37.60
2019-02-21T10:47:46.198Z,37.70
2019-02-21T10:50:16.541Z,37.50
2019-02-21T10:52:45.161Z,37.30
2019-02-21T10:55:14.167Z,36.50
2019-02-21T10:57:45.284Z,36.30
2019-02-21T11:00:22.016Z,36.10
2019-02-21T11:02:50.657Z,35.70
2019-02-21T11:05:19.202Z,35.60
2019-02-21T11:07:47.739Z,35.40
2019-02-21T11:10:28.264Z,35.10
2019-02-21T11:12:56.745Z,35.20
2019-02-21T11:15:25.967Z,35.30
2019-02-21T11:17:54.589Z,34.90
2019-02-21T11:20:23.201Z,34.90
2019-02-21T11:22:51.776Z,35.10
2019-02-21T11:25:20.257Z,35.40
2019-02-21T11:27:48.878Z,35.40
2019-02-21T11:30:19.341Z,35.60
2019-02-21T11:32:47.922Z,35.70
2019-02-21T11:35:16.550Z,35.80
2019-02-21T11:37:47.117Z,35.90
2019-02-21T11:40:16.721Z,36.00
2019-02-21T11:42:45.541Z,36.10
2019-02-21T11:45:16.339Z,36.30
2019-02-21T11:47:45.032Z,36.40
2019-02-21T11:50:15.530Z,36.30
2019-02-21T11:52:44.076Z,36.20
2019-02-21T11:55:18.101Z,36.30
2019-02-21T11:57:46.605Z,36.30
2019-02-21T12:00:20.469Z,36.20
2019-02-21T12:02:49.026Z,36.20
2019-02-21T12:05:19.557Z,36.20
2019-02-21T12:07:47.762Z,36.10
2019-02-21T12:10:16.229Z,35.80
2019-02-21T12:12:44.854Z,35.70
2019-02-21T12:15:14.831Z,35.60
2019-02-21T12:17:43.449Z,35.60
2019-02-21T12:20:14.601Z,35.60
2019-02-21T12:22:43.079Z,35.50
2019-02-21T12:25:14.001Z,35.60
2019-02-21T12:27:42.481Z,35.60
2019-02-21T12:30:18.427Z,35.70
2019-02-21T12:32:46.969Z,35.70
2019-02-21T12:35:15.622Z,35.40
2019-02-21T12:37:44.199Z,35.60
2019-02-21T12:40:15.717Z,35.60
2019-02-21T12:42:44.245Z,35.50
2019-02-21T12:45:15.189Z,35.60
2019-02-21T12:47:50.677Z,35.40
2019-02-21T12:50:14.153Z,35.50
2019-02-21T12:52:42.674Z,35.50
2019-02-21T12:55:11.693Z,35.40
2019-02-21T12:57:40.277Z,35.50
2019-02-21T13:00:17.070Z,35.30
2019-02-21T13:02:45.580Z,35.50
2019-02-21T13:05:14.115Z,35.40
2019-02-21T13:07:42.623Z,35.50
2019-02-21T13:10:13.837Z,35.50
2019-02-21T13:12:42.357Z,35.50
2019-02-21T13:15:12.944Z,35.40
2019-02-21T13:17:41.503Z,35.30
2019-02-21T13:20:14.283Z,35.10
2019-02-21T13:22:43.035Z,35.00
2019-02-21T13:25:16.671Z,34.70
2019-02-21T13:27:45.224Z,34.60
2019-02-21T13:30:17.533Z,34.60
2019-02-21T13:32:46.157Z,34.80
2019-02-21T13:35:14.867Z,34.60
2019-02-21T13:37:43.460Z,34.20
2019-02-21T13:40:16.590Z,34.30
2019-02-21T13:42:45.048Z,34.40
2019-02-21T13:45:18.120Z,34.20
2019-02-21T13:47:46.826Z,33.90
2019-02-21T13:50:17.011Z,33.90
2019-02-21T13:52:45.465Z,33.60
2019-02-21T13:55:14.383Z,33.80
2019-02-21T13:57:42.885Z,33.90
2019-02-21T14:00:14.061Z,33.80
2019-02-21T14:02:42.619Z,33.70
2019-02-21T14:05:11.244Z,33.50
2019-02-21T14:07:39.800Z,33.70
2019-02-21T14:10:10.626Z,33.80
2019-02-21T14:12:39.262Z,33.70
2019-02-21T14:15:19.930Z,33.80
2019-02-21T14:17:48.431Z,33.60
2019-02-21T14:20:16.974Z,33.00
2019-02-21T14:22:45.524Z,33.10
2019-02-21T14:25:14.059Z,33.10
2019-02-21T14:27:42.623Z,33.10
2019-02-21T14:30:14.009Z,32.50
2019-02-21T14:32:42.565Z,32.20
2019-02-21T14:35:12.408Z,32.30
2019-02-21T14:37:40.932Z,32.20
2019-02-21T14:40:12.529Z,31.80
2019-02-21T14:42:41.033Z,31.60
2019-02-21T14:45:15.158Z,31.50
2019-02-21T14:47:43.620Z,31.20
2019-02-21T14:50:12.757Z,31.20
2019-02-21T14:52:41.353Z,31.30
2019-02-21T14:55:12.092Z,31.40
2019-02-21T14:57:41.418Z,31.50
2019-02-21T15:00:23.888Z,31.60
2019-02-21T15:02:52.343Z,31.80
2019-02-21T15:05:20.886Z,31.90
2019-02-21T15:07:49.360Z,32.00
2019-02-21T15:10:17.919Z,32.10
2019-02-21T15:12:46.380Z,32.20
2019-02-21T15:15:17.596Z,32.20
2019-02-21T15:17:46.146Z,32.30
2019-02-21T15:20:16.182Z,32.40
2019-02-21T15:22:44.754Z,32.50
2019-02-21T15:25:13.350Z,32.70
2019-02-21T15:27:41.839Z,32.80
2019-02-21T15:30:21.373Z,32.90
2019-02-21T15:32:50.035Z,33.00
2019-02-21T15:35:19.630Z,33.20
2019-02-21T15:37:48.375Z,33.20
2019-02-21T15:40:16.906Z,33.40
2019-02-21T15:42:45.404Z,33.30
2019-02-21T15:45:25.395Z,33.50
2019-02-21T15:47:53.927Z,33.50
2019-02-21T15:50:22.510Z,33.60
2019-02-21T15:52:53.070Z,33.50
2019-02-21T15:55:22.469Z,33.50
2019-02-21T15:58:00.537Z,33.60
2019-02-21T16:00:22.564Z,33.60
2019-02-21T16:02:51.493Z,33.60
2019-02-21T16:05:20.022Z,33.60
2019-02-21T16:07:48.482Z,33.70
2019-02-21T16:10:20.063Z,33.80
2019-02-21T16:12:48.778Z,33.80
2019-02-21T16:15:17.992Z,33.80
2019-02-21T16:17:46.572Z,33.90
2019-02-21T16:20:16.655Z,33.90
2019-02-21T16:22:45.416Z,34.00
2019-02-21T16:25:16.691Z,34.00
2019-02-21T16:27:45.227Z,34.00
2019-02-21T16:30:14.013Z,34.20
2019-02-21T16:32:42.573Z,34.20
2019-02-21T16:35:12.865Z,34.20
2019-02-21T16:37:41.348Z,34.30
2019-02-21T16:40:12.172Z,34.40
2019-02-21T16:42:40.692Z,34.50
2019-02-21T16:45:22.820Z,34.50
2019-02-21T16:47:51.512Z,34.60
2019-02-21T16:50:29.412Z,34.50
2019-02-21T16:52:50.275Z,34.60
2019-02-21T16:55:20.875Z,34.70
2019-02-21T16:57:49.456Z,34.70
2019-02-21T17:00:22.331Z,34.70
2019-02-21T17:02:50.907Z,34.70
2019-02-21T17:05:19.636Z,34.90
2019-02-21T17:07:48.182Z,34.80
2019-02-21T17:10:17.182Z,34.90
2019-02-21T17:12:45.821Z,35.00
2019-02-21T17:15:16.102Z,35.00
2019-02-21T17:17:44.585Z,35.00
2019-02-21T17:20:23.456Z,35.00
2019-02-21T17:22:52.018Z,35.10
2019-02-21T17:25:20.552Z,35.20
2019-02-21T17:27:50.382Z,35.10
2019-02-21T17:30:19.458Z,35.20
2019-02-21T17:32:48.078Z,35.20
2019-02-21T17:35:16.839Z,35.20
2019-02-21T17:37:45.402Z,35.20
2019-02-21T17:40:16.684Z,35.20
2019-02-21T17:42:45.181Z,35.20
2019-02-21T17:45:13.739Z,35.30
2019-02-21T17:47:42.213Z,35.30
2019-02-21T17:50:15.773Z,35.40
2019-02-21T17:52:44.470Z,35.80
2019-02-21T17:55:13.364Z,35.50
2019-02-21T17:57:41.851Z,35.50
2019-02-21T18:00:25.415Z,35.50
2019-02-21T18:02:53.894Z,35.50
2019-02-21T18:05:22.520Z,35.50
2019-02-21T18:07:51.083Z,35.50
2019-02-21T18:10:19.663Z,35.60
2019-02-21T18:12:48.194Z,35.50
2019-02-21T18:15:17.727Z,35.70
2019-02-21T18:17:46.197Z,35.70
2019-02-21T18:20:15.493Z,35.70
2019-02-21T18:22:44.458Z,35.70
2019-02-21T18:25:41.655Z,35.70
2019-02-21T18:28:10.209Z,35.80
2019-02-21T18:30:38.904Z,35.80
2019-02-21T18:33:07.458Z,35.80
2019-02-21T18:35:36.026Z,35.90
2019-02-21T18:38:04.783Z,35.90
2019-02-21T18:40:33.270Z,35.90
2019-02-21T18:43:04.477Z,35.80
2019-02-21T18:45:32.977Z,35.90
2019-02-21T18:48:01.500Z,35.90
2019-02-21T18:50:37.751Z,35.90
2019-02-21T18:53:00.158Z,35.90
2019-02-21T18:55:28.745Z,36.00
2019-02-21T18:57:57.261Z,36.00
2019-02-21T19:00:27.007Z,36.00
2019-02-21T19:02:55.497Z,36.20
2019-02-21T19:05:34.935Z,36.20
2019-02-21T19:08:00.814Z,36.20
2019-02-21T19:10:24.627Z,36.20
2019-02-21T19:12:53.090Z,36.30
2019-02-21T19:15:22.007Z,36.30
2019-02-21T19:17:50.571Z,36.40
2019-02-21T19:20:20.586Z,36.40
2019-02-21T19:22:49.142Z,36.40
2019-02-21T19:25:17.935Z,36.60
2019-02-21T19:27:46.511Z,36.60
2019-02-21T19:30:34.436Z,36.60
2019-02-21T19:33:03.045Z,36.70
2019-02-21T19:35:31.783Z,36.80
2019-02-21T19:38:09.913Z,36.80
2019-02-21T19:40:30.592Z,36.90
2019-02-21T19:42:59.115Z,36.90
2019-02-21T19:45:27.810Z,36.90
2019-02-21T19:47:56.379Z,36.90
2019-02-21T19:50:24.986Z,36.90
2019-02-21T19:52:53.551Z,37.00
2019-02-21T19:55:22.129Z,37.00
2019-02-21T19:57:50.864Z,37.00
2019-02-21T20:00:22.581Z,37.00
2019-02-21T20:02:51.094Z,37.00
2019-02-21T20:05:19.630Z,37.00
2019-02-21T20:07:48.229Z,37.00
2019-02-21T20:10:17.001Z,37.00
2019-02-21T20:12:45.511Z,37.20
2019-02-21T20:15:14.422Z,37.10
2019-02-21T20:17:43.144Z,37.10
2019-02-21T20:20:23.240Z,37.20
2019-02-21T20:22:51.900Z,37.60
2019-02-21T20:25:20.477Z,37.20
2019-02-21T20:27:49.097Z,37.20
2019-02-21T20:30:20.864Z,37.30
2019-02-21T20:32:49.492Z,37.30
2019-02-21T20:35:18.082Z,37.30
2019-02-21T20:37:46.620Z,37.30
2019-02-21T20:40:15.357Z,37.30
2019-02-21T20:42:43.914Z,37.50
2019-02-21T20:45:14.274Z,37.50
2019-02-21T20:47:42.856Z,37.50
2019-02-21T20:50:12.661Z,37.50
2019-02-21T20:52:41.291Z,37.60
2019-02-21T20:55:11.102Z,37.50
2019-02-21T20:57:39.683Z,37.50
2019-02-21T21:00:11.400Z,37.50
2019-02-21T21:02:39.927Z,37.50
2019-02-21T21:05:08.668Z,37.50
2019-02-21T21:07:37.208Z,37.60
2019-02-21T21:10:09.276Z,37.60
2019-02-21T21:12:37.819Z,37.50
2019-02-21T21:15:09.545Z,37.60
2019-02-21T21:17:38.273Z,37.70
2019-02-21T21:20:16.377Z,37.60
2019-02-21T21:22:42.114Z,37.60
2019-02-21T21:25:15.213Z,37.70
2019-02-21T21:27:43.848Z,37.70
2019-02-21T21:30:14.300Z,37.70
2019-02-21T21:32:42.895Z,37.80
2019-02-21T21:35:11.672Z,37.90
2019-02-21T21:37:40.258Z,37.90
2019-02-21T21:40:12.022Z,37.90
2019-02-21T21:42:40.592Z,38.00
2019-02-21T21:45:14.471Z,37.90
2019-02-21T21:47:43.104Z,38.10
2019-02-21T21:50:14.421Z,38.00
2019-02-21T21:52:42.969Z,38.20
2019-02-21T21:55:11.602Z,38.20
2019-02-21T21:57:40.136Z,38.20
2019-02-21T22:00:11.692Z,38.20
2019-02-21T22:02:40.152Z,38.20
2019-02-21T22:05:09.522Z,38.30
2019-02-21T22:07:38.076Z,38.40
2019-02-21T22:10:12.660Z,38.40
2019-02-21T22:12:41.221Z,38.40
2019-02-21T22:15:12.702Z,38.40
2019-02-21T22:17:42.183Z,38.50
2019-02-21T22:20:10.949Z,38.50
2019-02-21T22:22:39.568Z,38.50
2019-02-21T22:25:10.576Z,38.60
2019-02-21T22:27:39.067Z,38.60
2019-02-21T22:30:20.575Z,38.60
2019-02-21T22:32:49.162Z,38.70
2019-02-21T22:35:17.648Z,38.70
2019-02-21T22:37:46.227Z,38.70
2019-02-21T22:40:19.499Z,38.70
2019-02-21T22:42:47.986Z,38.70
2019-02-21T22:45:16.533Z,38.70
2019-02-21T22:47:45.133Z,38.70
2019-02-21T22:50:17.617Z,38.80
2019-02-21T22:52:46.199Z,38.80
2019-02-21T22:55:14.798Z,38.80
2019-02-21T22:57:43.310Z,38.70
2019-02-21T23:00:30.987Z,38.80
2019-02-21T23:03:00.466Z,39.00
2019-02-21T23:05:54.422Z,38.90
2019-02-21T23:08:41.041Z,38.90
2019-02-21T23:11:09.509Z,39.00
2019-02-21T23:13:38.146Z,39.10
2019-02-21T23:16:06.832Z,39.10
2019-02-21T23:18:35.487Z,39.10
2019-02-21T23:21:04.158Z,39.10
2019-02-21T23:23:32.880Z,39.20
2019-02-21T23:26:01.450Z,39.20
2019-02-21T23:28:29.937Z,39.20
2019-02-21T23:30:58.507Z,39.20
2019-02-21T23:33:27.604Z,39.60
2019-02-21T23:35:56.115Z,39.20
2019-02-21T23:38:24.679Z,39.20
2019-02-21T23:40:53.175Z,39.20
2019-02-21T23:43:21.721Z,39.20
2019-02-21T23:45:50.295Z,39.30
2019-02-21T23:48:18.917Z,39.30
2019-02-21T23:50:47.459Z,39.40
2019-02-21T23:53:17.585Z,39.50
2019-02-21T23:55:46.170Z,39.60
2019-02-21T23:58:14.668Z,39.70
